sensor_id;sensor_type;location;lat;lon;timestamp;P1;durP1;ratioP1;P2;durP2;ratioP2
54899;SDS011;40801;41.924;25.562;2023-04-01T00:01:51;4.82;;;4.43;;
54899;SDS011;40801;41.924;25.562;2023-04-01T00:04:16;5.10;;;4.60;;
54899;SDS011;40801;41.924;25.562;2023-04-01T00:06:42;5.65;;;5.15;;
54899;SDS011;40801;41.924;25.562;2023-04-01T00:09:08;4.10;;;3.72;;
54899;SDS011;40801;41.924;25.562;2023-04-01T00:11:33;4.65;;;4.35;;
54899;SDS011;40801;41.924;25.562;2023-04-01T00:13:58;6.22;;;5.25;;
54899;SDS011;40801;41.924;25.562;2023-04-01T00:16:24;5.05;;;4.65;;
54899;SDS011;40801;41.924;25.562;2023-04-01T00:18:50;4.95;;;4.50;;
54899;SDS011;40801;41.924;25.562;2023-04-01T00:21:16;5.60;;;5.07;;
54899;SDS011;40801;41.924;25.562;2023-04-01T00:23:42;6.13;;;5.68;;
54899;SDS011;40801;41.924;25.562;2023-04-01T00:26:08;5.47;;;5.07;;
54899;SDS011;40801;41.924;25.562;2023-04-01T00:28:34;7.28;;;6.53;;
54899;SDS011;40801;41.924;25.562;2023-04-01T00:31:05;5.82;;;5.30;;
54899;SDS011;40801;41.924;25.562;2023-04-01T00:33:31;5.47;;;5.07;;
54899;SDS011;40801;41.924;25.562;2023-04-01T00:36:05;5.32;;;4.93;;
54899;SDS011;40801;41.924;25.562;2023-04-01T00:38:34;8.15;;;6.18;;
54899;SDS011;40801;41.924;25.562;2023-04-01T00:41:00;6.45;;;5.20;;
54899;SDS011;40801;41.924;25.562;2023-04-01T00:43:25;6.20;;;5.45;;
54899;SDS011;40801;41.924;25.562;2023-04-01T00:45:51;5.95;;;5.35;;
54899;SDS011;40801;41.924;25.562;2023-04-01T00:48:21;4.70;;;4.40;;
54899;SDS011;40801;41.924;25.562;2023-04-01T00:50:54;4.45;;;4.15;;
54899;SDS011;40801;41.924;25.562;2023-04-01T00:53:33;5.93;;;4.82;;
54899;SDS011;40801;41.924;25.562;2023-04-01T00:56:04;4.55;;;4.15;;
54899;SDS011;40801;41.924;25.562;2023-04-01T00:58:35;5.57;;;4.18;;
54899;SDS011;40801;41.924;25.562;2023-04-01T01:01:03;4.75;;;4.18;;
54899;SDS011;40801;41.924;25.562;2023-04-01T01:03:30;6.38;;;5.43;;
54899;SDS011;40801;41.924;25.562;2023-04-01T01:08:47;6.72;;;4.80;;
54899;SDS011;40801;41.924;25.562;2023-04-01T01:11:40;9.13;;;5.55;;
54899;SDS011;40801;41.924;25.562;2023-04-01T01:17:38;7.88;;;7.07;;
54899;SDS011;40801;41.924;25.562;2023-04-01T01:20:30;6.80;;;6.13;;
54899;SDS011;40801;41.924;25.562;2023-04-01T01:30:52;8.50;;;7.28;;
54899;SDS011;40801;41.924;25.562;2023-04-01T01:33:35;8.60;;;7.75;;
54899;SDS011;40801;41.924;25.562;2023-04-01T01:36:06;11.60;;;9.45;;
54899;SDS011;40801;41.924;25.562;2023-04-01T01:38:37;12.40;;;10.50;;
54899;SDS011;40801;41.924;25.562;2023-04-01T01:41:04;26.45;;;19.63;;
54899;SDS011;40801;41.924;25.562;2023-04-01T01:43:36;27.48;;;22.65;;
54899;SDS011;40801;41.924;25.562;2023-04-01T01:46:07;25.08;;;20.45;;
54899;SDS011;40801;41.924;25.562;2023-04-01T01:48:36;20.60;;;15.35;;
54899;SDS011;40801;41.924;25.562;2023-04-01T01:51:05;18.30;;;15.07;;
54899;SDS011;40801;41.924;25.562;2023-04-01T01:53:31;13.63;;;12.20;;
54899;SDS011;40801;41.924;25.562;2023-04-01T01:55:56;9.57;;;7.93;;
54899;SDS011;40801;41.924;25.562;2023-04-01T01:58:22;9.23;;;7.68;;
54899;SDS011;40801;41.924;25.562;2023-04-01T02:01:04;10.40;;;9.25;;
54899;SDS011;40801;41.924;25.562;2023-04-01T02:03:34;10.25;;;9.32;;
54899;SDS011;40801;41.924;25.562;2023-04-01T02:06:03;12.17;;;10.17;;
54899;SDS011;40801;41.924;25.562;2023-04-01T02:11:13;8.38;;;6.50;;
54899;SDS011;40801;41.924;25.562;2023-04-01T02:13:51;6.57;;;5.95;;
54899;SDS011;40801;41.924;25.562;2023-04-01T02:16:31;6.50;;;5.25;;
54899;SDS011;40801;41.924;25.562;2023-04-01T02:18:59;8.32;;;6.85;;
54899;SDS011;40801;41.924;25.562;2023-04-01T02:21:32;7.78;;;7.05;;
54899;SDS011;40801;41.924;25.562;2023-04-01T02:24:00;6.80;;;6.10;;
54899;SDS011;40801;41.924;25.562;2023-04-01T02:26:30;6.88;;;6.32;;
54899;SDS011;40801;41.924;25.562;2023-04-01T02:28:55;7.07;;;6.25;;
54899;SDS011;40801;41.924;25.562;2023-04-01T02:31:22;16.25;;;12.23;;
54899;SDS011;40801;41.924;25.562;2023-04-01T02:33:48;11.63;;;10.60;;
54899;SDS011;40801;41.924;25.562;2023-04-01T02:36:15;7.22;;;6.45;;
54899;SDS011;40801;41.924;25.562;2023-04-01T02:38:43;6.72;;;5.72;;
54899;SDS011;40801;41.924;25.562;2023-04-01T02:41:10;6.28;;;5.53;;
54899;SDS011;40801;41.924;25.562;2023-04-01T02:43:35;6.60;;;5.90;;
54899;SDS011;40801;41.924;25.562;2023-04-01T02:46:01;7.05;;;6.45;;
54899;SDS011;40801;41.924;25.562;2023-04-01T02:48:27;7.55;;;6.65;;
54899;SDS011;40801;41.924;25.562;2023-04-01T02:50:53;6.60;;;6.00;;
54899;SDS011;40801;41.924;25.562;2023-04-01T02:53:18;6.80;;;5.95;;
54899;SDS011;40801;41.924;25.562;2023-04-01T02:55:43;6.28;;;5.78;;
54899;SDS011;40801;41.924;25.562;2023-04-01T02:58:10;7.03;;;5.93;;
54899;SDS011;40801;41.924;25.562;2023-04-01T03:00:36;5.38;;;5.07;;
54899;SDS011;40801;41.924;25.562;2023-04-01T03:03:01;6.18;;;5.75;;
54899;SDS011;40801;41.924;25.562;2023-04-01T03:05:27;6.93;;;6.32;;
54899;SDS011;40801;41.924;25.562;2023-04-01T03:07:53;6.32;;;5.70;;
54899;SDS011;40801;41.924;25.562;2023-04-01T03:10:19;6.15;;;5.75;;
54899;SDS011;40801;41.924;25.562;2023-04-01T03:12:45;8.80;;;7.82;;
54899;SDS011;40801;41.924;25.562;2023-04-01T03:15:11;8.95;;;8.02;;
54899;SDS011;40801;41.924;25.562;2023-04-01T03:17:39;8.02;;;7.32;;
54899;SDS011;40801;41.924;25.562;2023-04-01T03:20:05;7.57;;;6.88;;
54899;SDS011;40801;41.924;25.562;2023-04-01T03:22:31;10.70;;;9.63;;
54899;SDS011;40801;41.924;25.562;2023-04-01T03:24:56;12.15;;;10.27;;
54899;SDS011;40801;41.924;25.562;2023-04-01T03:27:22;14.93;;;10.23;;
54899;SDS011;40801;41.924;25.562;2023-04-01T03:29:48;10.55;;;9.65;;
54899;SDS011;40801;41.924;25.562;2023-04-01T03:32:13;13.25;;;10.40;;
54899;SDS011;40801;41.924;25.562;2023-04-01T03:34:39;13.00;;;11.70;;
54899;SDS011;40801;41.924;25.562;2023-04-01T03:37:04;12.63;;;11.35;;
54899;SDS011;40801;41.924;25.562;2023-04-01T03:39:30;19.52;;;14.43;;
54899;SDS011;40801;41.924;25.562;2023-04-01T03:41:56;17.25;;;13.25;;
54899;SDS011;40801;41.924;25.562;2023-04-01T03:44:21;16.90;;;14.52;;
54899;SDS011;40801;41.924;25.562;2023-04-01T03:46:47;13.80;;;12.40;;
54899;SDS011;40801;41.924;25.562;2023-04-01T03:49:12;17.25;;;12.40;;
54899;SDS011;40801;41.924;25.562;2023-04-01T03:51:38;10.88;;;9.88;;
54899;SDS011;40801;41.924;25.562;2023-04-01T03:54:05;12.23;;;10.93;;
54899;SDS011;40801;41.924;25.562;2023-04-01T03:56:30;13.55;;;12.18;;
54899;SDS011;40801;41.924;25.562;2023-04-01T03:58:56;11.65;;;10.57;;
54899;SDS011;40801;41.924;25.562;2023-04-01T04:01:22;10.40;;;9.30;;
54899;SDS011;40801;41.924;25.562;2023-04-01T04:03:48;13.82;;;10.75;;
54899;SDS011;40801;41.924;25.562;2023-04-01T04:06:15;13.80;;;10.98;;
54899;SDS011;40801;41.924;25.562;2023-04-01T04:08:41;11.95;;;10.77;;
54899;SDS011;40801;41.924;25.562;2023-04-01T04:11:07;9.02;;;8.10;;
54899;SDS011;40801;41.924;25.562;2023-04-01T04:13:33;9.40;;;8.50;;
54899;SDS011;40801;41.924;25.562;2023-04-01T04:15:58;8.95;;;8.05;;
54899;SDS011;40801;41.924;25.562;2023-04-01T04:18:24;9.25;;;8.40;;
54899;SDS011;40801;41.924;25.562;2023-04-01T04:20:49;7.90;;;7.22;;
54899;SDS011;40801;41.924;25.562;2023-04-01T04:23:16;9.40;;;8.50;;
54899;SDS011;40801;41.924;25.562;2023-04-01T04:25:52;8.35;;;7.65;;
54899;SDS011;40801;41.924;25.562;2023-04-01T04:28:19;8.85;;;7.60;;
54899;SDS011;40801;41.924;25.562;2023-04-01T04:30:44;9.27;;;8.35;;
54899;SDS011;40801;41.924;25.562;2023-04-01T04:33:10;11.20;;;8.88;;
54899;SDS011;40801;41.924;25.562;2023-04-01T04:35:35;9.77;;;8.73;;
54899;SDS011;40801;41.924;25.562;2023-04-01T04:38:01;9.63;;;8.13;;
54899;SDS011;40801;41.924;25.562;2023-04-01T04:40:26;11.57;;;8.93;;
54899;SDS011;40801;41.924;25.562;2023-04-01T04:42:54;9.48;;;8.35;;
54899;SDS011;40801;41.924;25.562;2023-04-01T04:45:20;11.07;;;9.88;;
54899;SDS011;40801;41.924;25.562;2023-04-01T04:47:45;12.07;;;10.88;;
54899;SDS011;40801;41.924;25.562;2023-04-01T04:50:11;15.35;;;13.85;;
54899;SDS011;40801;41.924;25.562;2023-04-01T04:52:36;17.02;;;14.32;;
54899;SDS011;40801;41.924;25.562;2023-04-01T04:55:02;18.77;;;16.60;;
54899;SDS011;40801;41.924;25.562;2023-04-01T04:57:28;16.50;;;14.88;;
54899;SDS011;40801;41.924;25.562;2023-04-01T04:59:53;12.00;;;10.52;;
54899;SDS011;40801;41.924;25.562;2023-04-01T05:02:18;11.32;;;9.40;;
54899;SDS011;40801;41.924;25.562;2023-04-01T05:04:44;16.05;;;14.00;;
54899;SDS011;40801;41.924;25.562;2023-04-01T05:07:10;11.15;;;10.05;;
54899;SDS011;40801;41.924;25.562;2023-04-01T05:09:35;10.50;;;9.27;;
54899;SDS011;40801;41.924;25.562;2023-04-01T05:12:01;9.98;;;8.88;;
54899;SDS011;40801;41.924;25.562;2023-04-01T05:14:26;11.13;;;9.18;;
54899;SDS011;40801;41.924;25.562;2023-04-01T05:16:52;9.10;;;8.23;;
54899;SDS011;40801;41.924;25.562;2023-04-01T05:19:19;10.48;;;8.90;;
54899;SDS011;40801;41.924;25.562;2023-04-01T05:21:44;12.73;;;9.90;;
54899;SDS011;40801;41.924;25.562;2023-04-01T05:24:10;12.65;;;11.35;;
54899;SDS011;40801;41.924;25.562;2023-04-01T05:26:35;11.07;;;9.50;;
54899;SDS011;40801;41.924;25.562;2023-04-01T05:29:02;12.48;;;11.25;;
54899;SDS011;40801;41.924;25.562;2023-04-01T05:31:28;15.25;;;11.45;;
54899;SDS011;40801;41.924;25.562;2023-04-01T05:33:54;14.60;;;13.10;;
54899;SDS011;40801;41.924;25.562;2023-04-01T05:36:20;12.82;;;11.50;;
54899;SDS011;40801;41.924;25.562;2023-04-01T05:38:45;17.88;;;13.50;;
54899;SDS011;40801;41.924;25.562;2023-04-01T05:41:12;15.05;;;13.45;;
54899;SDS011;40801;41.924;25.562;2023-04-01T05:43:39;23.10;;;18.02;;
54899;SDS011;40801;41.924;25.562;2023-04-01T05:46:05;22.58;;;18.90;;
54899;SDS011;40801;41.924;25.562;2023-04-01T05:48:30;18.02;;;16.15;;
54899;SDS011;40801;41.924;25.562;2023-04-01T05:50:56;18.88;;;15.80;;
54899;SDS011;40801;41.924;25.562;2023-04-01T05:53:21;16.02;;;13.77;;
54899;SDS011;40801;41.924;25.562;2023-04-01T05:55:47;13.70;;;12.40;;
54899;SDS011;40801;41.924;25.562;2023-04-01T05:58:12;15.77;;;14.20;;
54899;SDS011;40801;41.924;25.562;2023-04-01T06:00:38;17.40;;;15.57;;
54899;SDS011;40801;41.924;25.562;2023-04-01T06:03:03;19.95;;;16.92;;
54899;SDS011;40801;41.924;25.562;2023-04-01T06:05:38;17.20;;;15.50;;
54899;SDS011;40801;41.924;25.562;2023-04-01T06:08:08;12.48;;;10.93;;
54899;SDS011;40801;41.924;25.562;2023-04-01T06:11:26;12.07;;;11.00;;
54899;SDS011;40801;41.924;25.562;2023-04-01T06:13:52;10.57;;;8.57;;
54899;SDS011;40801;41.924;25.562;2023-04-01T06:29:57;8.90;;;8.05;;
54899;SDS011;40801;41.924;25.562;2023-04-01T06:40:59;10.30;;;9.07;;
54899;SDS011;40801;41.924;25.562;2023-04-01T06:43:58;10.20;;;9.07;;
54899;SDS011;40801;41.924;25.562;2023-04-01T06:52:31;9.40;;;8.52;;
54899;SDS011;40801;41.924;25.562;2023-04-01T06:54:58;13.35;;;11.10;;
54899;SDS011;40801;41.924;25.562;2023-04-01T06:57:49;22.77;;;19.42;;
54899;SDS011;40801;41.924;25.562;2023-04-01T07:00:38;17.42;;;15.68;;
54899;SDS011;40801;41.924;25.562;2023-04-01T07:03:26;14.93;;;12.30;;
54899;SDS011;40801;41.924;25.562;2023-04-01T07:05:58;11.57;;;10.48;;
54899;SDS011;40801;41.924;25.562;2023-04-01T07:08:28;13.55;;;10.63;;
54899;SDS011;40801;41.924;25.562;2023-04-01T07:11:03;11.40;;;9.55;;
54899;SDS011;40801;41.924;25.562;2023-04-01T07:16:03;15.32;;;11.23;;
54899;SDS011;40801;41.924;25.562;2023-04-01T07:18:38;10.95;;;9.95;;
54899;SDS011;40801;41.924;25.562;2023-04-01T07:21:22;16.30;;;11.93;;
54899;SDS011;40801;41.924;25.562;2023-04-01T07:23:52;13.13;;;11.75;;
54899;SDS011;40801;41.924;25.562;2023-04-01T07:26:23;18.48;;;10.98;;
54899;SDS011;40801;41.924;25.562;2023-04-01T07:28:50;14.05;;;12.00;;
54899;SDS011;40801;41.924;25.562;2023-04-01T07:36:43;16.73;;;7.18;;
54899;SDS011;40801;41.924;25.562;2023-04-01T07:39:25;13.98;;;6.70;;
54899;SDS011;40801;41.924;25.562;2023-04-01T07:42:15;10.00;;;5.60;;
54899;SDS011;40801;41.924;25.562;2023-04-01T07:53:53;11.20;;;7.22;;
54899;SDS011;40801;41.924;25.562;2023-04-01T07:57:02;9.77;;;5.60;;
54899;SDS011;40801;41.924;25.562;2023-04-01T07:59:18;13.50;;;6.30;;
54899;SDS011;40801;41.924;25.562;2023-04-01T08:07:29;9.20;;;4.95;;
54899;SDS011;40801;41.924;25.562;2023-04-01T08:10:10;9.52;;;5.40;;
54899;SDS011;40801;41.924;25.562;2023-04-01T08:15:54;6.60;;;4.90;;
54899;SDS011;40801;41.924;25.562;2023-04-01T08:20:55;9.30;;;4.32;;
54899;SDS011;40801;41.924;25.562;2023-04-01T08:23:28;10.70;;;4.97;;
54899;SDS011;40801;41.924;25.562;2023-04-01T08:28:24;10.52;;;5.28;;
54899;SDS011;40801;41.924;25.562;2023-04-01T08:31:01;10.15;;;4.57;;
54899;SDS011;40801;41.924;25.562;2023-04-01T08:33:31;8.85;;;4.63;;
54899;SDS011;40801;41.924;25.562;2023-04-01T08:36:10;7.47;;;4.35;;
54899;SDS011;40801;41.924;25.562;2023-04-01T08:38:42;10.85;;;4.80;;
54899;SDS011;40801;41.924;25.562;2023-04-01T09:19:24;15.25;;;7.68;;
54899;SDS011;40801;41.924;25.562;2023-04-01T09:39:03;12.07;;;4.85;;
54899;SDS011;40801;41.924;25.562;2023-04-01T09:44:48;8.55;;;4.68;;
54899;SDS011;40801;41.924;25.562;2023-04-01T10:17:31;6.97;;;3.90;;
54899;SDS011;40801;41.924;25.562;2023-04-01T10:20:17;7.85;;;3.58;;
54899;SDS011;40801;41.924;25.562;2023-04-01T10:23:20;8.45;;;3.63;;
54899;SDS011;40801;41.924;25.562;2023-04-01T10:37:23;9.55;;;3.63;;
54899;SDS011;40801;41.924;25.562;2023-04-01T10:43:10;10.15;;;4.93;;
54899;SDS011;40801;41.924;25.562;2023-04-01T10:54:59;9.90;;;4.83;;
54899;SDS011;40801;41.924;25.562;2023-04-01T10:58:27;11.10;;;6.30;;
54899;SDS011;40801;41.924;25.562;2023-04-01T11:04:02;10.13;;;4.80;;
54899;SDS011;40801;41.924;25.562;2023-04-01T11:14:41;16.67;;;4.93;;
54899;SDS011;40801;41.924;25.562;2023-04-01T11:20:28;7.97;;;4.75;;
54899;SDS011;40801;41.924;25.562;2023-04-01T11:33:42;11.07;;;4.60;;
54899;SDS011;40801;41.924;25.562;2023-04-01T11:44:35;13.07;;;4.25;;
54899;SDS011;40801;41.924;25.562;2023-04-01T11:58:31;16.08;;;6.53;;
54899;SDS011;40801;41.924;25.562;2023-04-01T12:09:08;7.45;;;5.18;;
54899;SDS011;40801;41.924;25.562;2023-04-01T12:19:40;11.05;;;5.00;;
54899;SDS011;40801;41.924;25.562;2023-04-01T12:22:20;11.82;;;4.05;;
54899;SDS011;40801;41.924;25.562;2023-04-01T12:25:01;10.80;;;4.57;;
54899;SDS011;40801;41.924;25.562;2023-04-01T12:27:59;12.82;;;5.35;;
54899;SDS011;40801;41.924;25.562;2023-04-01T12:33:28;13.20;;;5.15;;
54899;SDS011;40801;41.924;25.562;2023-04-01T12:38:38;14.85;;;4.57;;
54899;SDS011;40801;41.924;25.562;2023-04-01T12:41:51;11.07;;;4.80;;
54899;SDS011;40801;41.924;25.562;2023-04-01T12:50:09;11.77;;;4.00;;
54899;SDS011;40801;41.924;25.562;2023-04-01T12:55:46;10.57;;;4.15;;
54899;SDS011;40801;41.924;25.562;2023-04-01T13:01:27;10.10;;;5.00;;
54899;SDS011;40801;41.924;25.562;2023-04-01T13:12:58;10.00;;;3.78;;
54899;SDS011;40801;41.924;25.562;2023-04-01T13:21:58;10.25;;;5.78;;
54899;SDS011;40801;41.924;25.562;2023-04-01T13:43:34;7.40;;;4.20;;
54899;SDS011;40801;41.924;25.562;2023-04-01T13:57:20;17.10;;;5.72;;
54899;SDS011;40801;41.924;25.562;2023-04-01T14:14:31;9.40;;;4.93;;
54899;SDS011;40801;41.924;25.562;2023-04-01T14:19:27;9.32;;;4.32;;
54899;SDS011;40801;41.924;25.562;2023-04-01T14:21:58;10.75;;;4.88;;
54899;SDS011;40801;41.924;25.562;2023-04-01T14:36:19;14.13;;;6.68;;
54899;SDS011;40801;41.924;25.562;2023-04-01T14:39:06;13.25;;;6.35;;
54899;SDS011;40801;41.924;25.562;2023-04-01T14:41:51;14.73;;;5.07;;
54899;SDS011;40801;41.924;25.562;2023-04-01T14:47:34;9.70;;;8.32;;
54899;SDS011;40801;41.924;25.562;2023-04-01T14:52:39;14.55;;;11.23;;
54899;SDS011;40801;41.924;25.562;2023-04-01T14:55:18;13.98;;;10.30;;
54899;SDS011;40801;41.924;25.562;2023-04-01T14:57:59;16.30;;;11.65;;
54899;SDS011;40801;41.924;25.562;2023-04-01T15:03:20;14.63;;;9.82;;
54899;SDS011;40801;41.924;25.562;2023-04-01T15:11:36;11.90;;;8.32;;
54899;SDS011;40801;41.924;25.562;2023-04-01T15:14:22;8.40;;;7.32;;
54899;SDS011;40801;41.924;25.562;2023-04-01T15:17:16;9.15;;;8.40;;
54899;SDS011;40801;41.924;25.562;2023-04-01T15:33:39;8.32;;;7.60;;
54899;SDS011;40801;41.924;25.562;2023-04-01T15:36:16;7.30;;;6.70;;
54899;SDS011;40801;41.924;25.562;2023-04-01T15:38:45;9.70;;;6.70;;
54899;SDS011;40801;41.924;25.562;2023-04-01T15:41:35;7.28;;;6.57;;
54899;SDS011;40801;41.924;25.562;2023-04-01T15:44:03;7.55;;;6.85;;
54899;SDS011;40801;41.924;25.562;2023-04-01T15:46:49;9.23;;;8.43;;
54899;SDS011;40801;41.924;25.562;2023-04-01T15:49:26;9.68;;;8.80;;
54899;SDS011;40801;41.924;25.562;2023-04-01T15:52:03;11.15;;;8.30;;
54899;SDS011;40801;41.924;25.562;2023-04-01T15:57:29;9.55;;;8.65;;
54899;SDS011;40801;41.924;25.562;2023-04-01T16:08:02;7.88;;;7.18;;
54899;SDS011;40801;41.924;25.562;2023-04-01T16:27:24;20.77;;;18.67;;
54899;SDS011;40801;41.924;25.562;2023-04-01T16:35:46;25.10;;;22.63;;
54899;SDS011;40801;41.924;25.562;2023-04-01T16:38:26;24.00;;;21.55;;
54899;SDS011;40801;41.924;25.562;2023-04-01T16:41:23;24.95;;;20.83;;
54899;SDS011;40801;41.924;25.562;2023-04-01T16:44:43;16.98;;;15.18;;
54899;SDS011;40801;41.924;25.562;2023-04-01T16:49:40;13.55;;;12.25;;
54899;SDS011;40801;41.924;25.562;2023-04-01T16:52:16;17.30;;;15.57;;
54899;SDS011;40801;41.924;25.562;2023-04-01T16:55:01;23.00;;;20.65;;
54899;SDS011;40801;41.924;25.562;2023-04-01T16:57:43;23.48;;;18.63;;
54899;SDS011;40801;41.924;25.562;2023-04-01T17:02:48;21.02;;;16.80;;
54899;SDS011;40801;41.924;25.562;2023-04-01T17:05:20;16.27;;;14.60;;
54899;SDS011;40801;41.924;25.562;2023-04-01T17:08:07;17.45;;;15.20;;
54899;SDS011;40801;41.924;25.562;2023-04-01T17:27:40;18.95;;;14.10;;
54899;SDS011;40801;41.924;25.562;2023-04-01T17:36:03;17.45;;;13.90;;
54899;SDS011;40801;41.924;25.562;2023-04-01T17:38:46;11.90;;;10.75;;
54899;SDS011;40801;41.924;25.562;2023-04-01T17:41:19;10.02;;;9.23;;
54899;SDS011;40801;41.924;25.562;2023-04-01T17:44:22;10.45;;;9.43;;
54899;SDS011;40801;41.924;25.562;2023-04-01T17:47:12;12.85;;;10.70;;
54899;SDS011;40801;41.924;25.562;2023-04-01T17:55:07;11.25;;;9.60;;
54899;SDS011;40801;41.924;25.562;2023-04-01T18:00:26;17.35;;;15.65;;
54899;SDS011;40801;41.924;25.562;2023-04-01T18:03:09;12.48;;;11.30;;
54899;SDS011;40801;41.924;25.562;2023-04-01T18:05:59;12.93;;;11.70;;
54899;SDS011;40801;41.924;25.562;2023-04-01T18:14:27;28.40;;;25.13;;
54899;SDS011;40801;41.924;25.562;2023-04-01T18:22:43;17.00;;;14.80;;
54899;SDS011;40801;41.924;25.562;2023-04-01T18:25:14;12.15;;;11.18;;
54899;SDS011;40801;41.924;25.562;2023-04-01T18:27:49;12.35;;;11.25;;
54899;SDS011;40801;41.924;25.562;2023-04-01T18:30:20;11.65;;;10.65;;
54899;SDS011;40801;41.924;25.562;2023-04-01T18:33:00;10.98;;;9.90;;
54899;SDS011;40801;41.924;25.562;2023-04-01T18:35:50;11.23;;;10.18;;
54899;SDS011;40801;41.924;25.562;2023-04-01T18:38:29;12.70;;;11.70;;
54899;SDS011;40801;41.924;25.562;2023-04-01T18:41:13;13.45;;;12.27;;
54899;SDS011;40801;41.924;25.562;2023-04-01T18:47:07;13.45;;;12.05;;
54899;SDS011;40801;41.924;25.562;2023-04-01T18:52:34;18.98;;;17.25;;
54899;SDS011;40801;41.924;25.562;2023-04-01T18:57:39;18.33;;;16.65;;
54899;SDS011;40801;41.924;25.562;2023-04-01T19:00:14;17.77;;;15.98;;
54899;SDS011;40801;41.924;25.562;2023-04-01T19:05:44;15.57;;;13.15;;
54899;SDS011;40801;41.924;25.562;2023-04-01T19:13:25;9.18;;;8.25;;
54899;SDS011;40801;41.924;25.562;2023-04-01T19:21:35;13.13;;;11.43;;
54899;SDS011;40801;41.924;25.562;2023-04-01T19:26:48;7.55;;;6.70;;
54899;SDS011;40801;41.924;25.562;2023-04-01T19:32:22;8.20;;;7.38;;
54899;SDS011;40801;41.924;25.562;2023-04-01T19:48:51;4.30;;;4.00;;
54899;SDS011;40801;41.924;25.562;2023-04-01T19:54:01;3.17;;;2.97;;
54899;SDS011;40801;41.924;25.562;2023-04-01T20:05:35;3.38;;;3.15;;
54899;SDS011;40801;41.924;25.562;2023-04-01T20:13:28;2.80;;;2.70;;
54899;SDS011;40801;41.924;25.562;2023-04-01T20:16:01;2.40;;;2.30;;
54899;SDS011;40801;41.924;25.562;2023-04-01T20:24:33;2.90;;;2.70;;
54899;SDS011;40801;41.924;25.562;2023-04-01T20:35:37;2.90;;;2.70;;
54899;SDS011;40801;41.924;25.562;2023-04-01T20:38:19;4.22;;;3.92;;
54899;SDS011;40801;41.924;25.562;2023-04-01T20:41:08;3.22;;;3.05;;
54899;SDS011;40801;41.924;25.562;2023-04-01T20:43:56;3.75;;;2.58;;
54899;SDS011;40801;41.924;25.562;2023-04-01T20:46:45;2.47;;;2.38;;
54899;SDS011;40801;41.924;25.562;2023-04-01T21:01:19;3.15;;;2.95;;
54899;SDS011;40801;41.924;25.562;2023-04-01T21:06:43;3.92;;;3.72;;
54899;SDS011;40801;41.924;25.562;2023-04-01T21:18:01;3.47;;;3.17;;
54899;SDS011;40801;41.924;25.562;2023-04-01T21:26:38;3.13;;;3.03;;
54899;SDS011;40801;41.924;25.562;2023-04-01T21:29:26;2.88;;;2.78;;
54899;SDS011;40801;41.924;25.562;2023-04-01T21:52:00;3.30;;;3.20;;
54899;SDS011;40801;41.924;25.562;2023-04-01T22:02:56;3.00;;;2.90;;
54899;SDS011;40801;41.924;25.562;2023-04-01T22:05:58;3.47;;;3.30;;
54899;SDS011;40801;41.924;25.562;2023-04-01T22:14:21;3.38;;;3.17;;
54899;SDS011;40801;41.924;25.562;2023-04-01T22:17:00;3.45;;;3.20;;
54899;SDS011;40801;41.924;25.562;2023-04-01T22:24:50;3.90;;;3.70;;
54899;SDS011;40801;41.924;25.562;2023-04-01T22:30:16;3.70;;;3.50;;
54899;SDS011;40801;41.924;25.562;2023-04-01T22:32:59;3.83;;;3.63;;
54899;SDS011;40801;41.924;25.562;2023-04-01T22:41:03;3.25;;;3.13;;
54899;SDS011;40801;41.924;25.562;2023-04-01T22:43:42;3.42;;;3.30;;
54899;SDS011;40801;41.924;25.562;2023-04-01T22:46:55;3.17;;;3.08;;
54899;SDS011;40801;41.924;25.562;2023-04-01T22:49:22;3.17;;;3.08;;
54899;SDS011;40801;41.924;25.562;2023-04-01T22:54:39;3.30;;;3.20;;
54899;SDS011;40801;41.924;25.562;2023-04-01T22:57:11;2.80;;;2.70;;
54899;SDS011;40801;41.924;25.562;2023-04-01T22:59:50;3.05;;;2.95;;
54899;SDS011;40801;41.924;25.562;2023-04-01T23:02:27;3.10;;;2.90;;
54899;SDS011;40801;41.924;25.562;2023-04-01T23:04:59;2.88;;;2.78;;
54899;SDS011;40801;41.924;25.562;2023-04-01T23:08:04;2.53;;;2.42;;
54899;SDS011;40801;41.924;25.562;2023-04-01T23:10:30;2.75;;;2.65;;
54899;SDS011;40801;41.924;25.562;2023-04-01T23:13:10;2.53;;;2.42;;
54899;SDS011;40801;41.924;25.562;2023-04-01T23:15:57;3.25;;;3.15;;
54899;SDS011;40801;41.924;25.562;2023-04-01T23:28:55;2.80;;;2.70;;
54899;SDS011;40801;41.924;25.562;2023-04-01T23:33:58;2.85;;;2.70;;
54899;SDS011;40801;41.924;25.562;2023-04-01T23:36:26;2.60;;;2.50;;
54899;SDS011;40801;41.924;25.562;2023-04-01T23:38:53;2.58;;;2.47;;
54899;SDS011;40801;41.924;25.562;2023-04-01T23:41:26;2.63;;;2.53;;
54899;SDS011;40801;41.924;25.562;2023-04-01T23:46:25;2.70;;;2.60;;
54899;SDS011;40801;41.924;25.562;2023-04-01T23:48:51;2.40;;;2.30;;
54899;SDS011;40801;41.924;25.562;2023-04-01T23:54:04;2.60;;;2.50;;
54899;SDS011;40801;41.924;25.562;2023-04-01T23:56:46;2.58;;;2.47;;
54899;SDS011;40801;41.924;25.562;2023-04-01T23:59:18;2.20;;;2.10;;
